CST,Max TemperatureF,Mean TemperatureF,Min TemperatureF,Max Dew PointF,MeanDew PointF,Min DewpointF,Max Humidity, Mean Humidity, Min Humidity, Max Sea Level PressureIn, Mean Sea Level PressureIn, Min Sea Level PressureIn, Max VisibilityMiles, Mean VisibilityMiles, Min VisibilityMiles, Max Wind SpeedMPH, Mean Wind SpeedMPH, Max Gust SpeedMPH,PrecipitationIn, CloudCover, Events, WindDirDegrees
2012-11-1,76,56,36,42,39,33,92,60,27,30.04,29.96,29.91,10,5,1,13,5,22,0.00,0,,232
2012-11-2,77,62,46,53,46,40,82,63,43,29.94,29.86,29.77,10,10,10,18,9,23,0.00,0,,124
2012-11-3,70,55,39,37,34,33,79,56,32,30.21,30.11,29.90,10,10,10,17,7,22,0.00,0,,350
2012-11-4,82,59,36,40,35,31,82,52,22,30.24,30.15,30.05,10,10,10,10,4,,T,1,,161
2012-11-5,48,46,44,41,40,38,89,80,71,30.13,30.07,29.98,10,10,9,20,11,25,0.00,7,,325
2012-11-6,64,50,35,40,34,26,89,58,27,30.11,30.08,30.02,10,10,8,23,7,29,0.00,3,,303
2012-11-7,60,47,33,32,29,25,70,51,31,30.21,30.14,30.10,10,10,10,14,6,17,0.00,0,,24
2012-11-8,71,55,38,43,38,32,76,56,35,30.11,29.98,29.87,10,10,10,25,14,32,0.00,0,,154
2012-11-9,76,65,53,58,54,43,77,66,54,29.88,29.83,29.76,10,10,10,30,18,36,0.00,0,,172
2012-11-10,75,69,63,57,55,52,78,64,49,29.86,29.77,29.69,10,10,10,36,23,45,0.00,0,,178
2012-11-11,69,49,28,58,41,21,100,82,63,30.29,29.89,29.63,10,8,2,47,13,66,1.17,7,Rain-Thunderstorm,313
2012-11-12,49,36,23,27,22,19,81,56,31,30.47,30.42,30.31,10,10,10,20,6,24,0.00,0,,247
2012-11-13,56,41,25,31,27,22,88,62,35,30.49,30.43,30.35,10,10,10,15,7,18,0.00,0,,168
2012-11-14,57,44,30,32,28,25,85,58,30,30.43,30.35,30.29,10,10,10,14,7,16,0.00,0,,148
2012-11-15,58,44,30,35,31,27,89,64,39,30.40,30.32,30.27,10,10,10,12,5,21,0.00,0,,158
2012-11-16,61,45,28,40,34,29,96,66,36,30.46,30.40,30.37,10,9,6,8,2,10,0.00,0,,132
2012-11-17,60,46,32,36,30,23,89,57,25,30.40,30.34,30.29,10,10,9,21,9,25,0.00,0,,151
2012-11-18,63,50,36,38,33,27,76,56,36,30.29,30.22,30.15,10,10,10,24,11,29,T,2,Rain,164
2012-11-19,65,56,46,49,46,42,86,71,56,30.18,30.13,30.09,10,10,7,17,10,36,0.17,2,Rain,190
2012-11-20,66,51,36,44,40,37,100,70,40,30.24,30.19,30.14,10,6,0,10,3,17,0.00,0,Fog,338
2012-11-21,72,54,35,46,39,35,100,65,29,30.25,30.16,30.01,10,8,2,18,9,26,0.00,0,,167
2012-11-22,73,61,48,51,44,37,62,53,44,30.26,29.99,29.88,10,10,10,25,14,32,0.00,1,,194
2012-11-23,49,38,27,36,22,17,76,56,36,30.53,30.45,30.28,10,10,10,23,10,31,0.00,0,,323
2012-11-24,49,35,20,25,21,17,88,61,34,30.44,30.22,29.96,10,10,10,21,9,26,0.00,0,,174
2012-11-25,59,45,30,31,27,23,78,55,32,29.98,29.94,29.88,10,10,10,15,6,20,0.00,0,,128
2012-11-26,47,37,27,31,27,21,82,60,38,30.47,30.21,29.99,10,10,8,25,14,35,0.00,1,,26
2012-11-27,43,31,18,22,20,15,92,66,39,30.51,30.41,30.33,10,10,8,12,5,15,0.00,0,,177
2012-11-28,54,38,21,32,27,19,89,69,41,30.43,30.33,30.20,10,10,9,13,6,,0.00,0,,151
2012-11-29,64,51,37,41,35,32,76,58,39,30.19,30.08,29.99,10,10,10,22,13,29,0.00,0,,174
2012-11-30,64,53,41,53,44,34,100,80,60,30.11,30.04,29.99,10,8,1,15,8,20,0.00,2,,179